Latest Weather Observations for Walgett

IDN60801

Issued at 9:35 am EDT Thursday 27 November 2014 (issued every 30 minutes, with the page automatically refreshed every 10 minutes)

About weather observations | Map of weather stations | Latest weather observations for NSW | Other Formats
Station Details ID: 052088 Name: WALGETT AIRPORT AWS Lat: -30.04 Lon: 148.12 Height: 133.0 m
Data from the previous 72 hours. | See also: Recent months at Walgett
Date/Time
EDT
Temp
°C
App
Temp
°C
Dew
Point
Rel
Hum
%
Delta-T
°C
Wind Press
QNH
hPa
Press
MSL
hPa
Rain
since 9 am
mm
Dir
 
Spd
km/h
Gust
km/h
Spd
kts
Gust
kts
27/09:30am 27.0 22.7 3.5 22 11.7 ESE 15 20 8 11 1017.4 1016.7 0.0
27/09:00am 25.1 20.4 3.1 24 10.8 ESE 17 20 9 11 1017.6 1016.9 -
27/08:30am 24.5 20.3 1.4 22 10.9 SE 13 19 7 10 1017.5 1016.8 -
27/08:00am 21.9 16.7 0.4 24 9.8 SSE 17 20 9 11 1017.4 1016.7 -
27/07:30am 20.3 14.8 0.7 27 8.9 S 19 22 10 12 1017.0 1016.4 -
27/07:00am 17.4 13.2 -0.8 29 7.8 S 11 15 6 8 1016.7 1016.1 -
27/06:30am 15.8 11.5 -1.7 30 7.2 SSE 11 15 6 8 1016.5 1015.9 -
27/06:00am 14.8 10.8 -2.1 31 6.8 ESE 9 9 5 5 1016.2 1015.6 -
27/05:30am 16.3 12.8 -1.7 29 7.5 SE 7 11 4 6 1015.7 1015.1 -
27/05:00am 16.3 11.1 -2.7 27 7.7 S 15 19 8 10 1015.1 1014.5 -
27/04:30am 17.0 10.9 -2.6 26 8.0 S 20 24 11 13 1015.0 1014.4 -
27/04:00am 15.8 10.1 -3.6 26 7.7 S 17 20 9 11 1014.9 1014.3 -
27/03:30am 16.5 11.5 -4.1 24 8.1 SSW 13 15 7 8 1015.0 1014.4 -
27/03:00am 16.0 11.3 -5.1 23 8.1 S 11 13 6 7 1015.1 1014.5 0.0
27/02:30am 18.1 12.8 -3.9 22 8.9 S 15 17 8 9 1015.3 1014.7 -
27/02:00am 16.3 11.6 -5.4 22 8.3 S 11 13 6 7 1015.5 1014.9 -
27/01:30am 17.1 12.4 -5.4 21 8.7 S 11 13 6 7 1015.7 1015.1 -
27/01:00am 18.0 13.3 -5.3 20 9.1 S 11 11 6 6 1015.9 1015.3 -
27/12:30am 18.7 14.3 -5.4 19 9.5 S 9 9 5 5 1016.1 1015.5 -
27/12:00am 19.4 14.3 -5.5 18 9.8 S 13 13 7 7 1016.2 1015.6 -
 
Date/Time
EDT
Temp
°C
App
Temp
°C
Dew
Point
Rel
Hum
%
Delta-T
°C
Wind Press
QNH
hPa
Press
MSL
hPa
Rain
since 9 am
mm
Dir
 
Spd
km/h
Gust
km/h
Spd
kts
Gust
kts
26/11:30pm 19.5 14.0 -5.4 18 9.9 S 15 19 8 10 1016.4 1015.8 -
26/11:00pm 20.5 15.0 -5.4 17 10.4 S 15 17 8 9 1016.3 1015.7 -
26/10:30pm 21.2 15.3 -5.6 16 10.8 S 17 17 9 9 1016.2 1015.6 -
26/10:00pm 22.8 17.4 -4.3 16 11.3 S 15 17 8 9 1016.1 1015.5 -
26/09:30pm 23.2 17.8 -4.8 15 11.7 S 15 19 8 10 1015.9 1015.3 -
26/09:00pm 24.2 18.7 -5.0 14 12.2 S 15 19 8 10 1015.6 1015.0 0.0
26/08:30pm 26.1 20.7 -4.4 13 13.1 S 15 20 8 11 1015.2 1014.6 -
26/08:00pm 28.5 22.3 -4.8 11 14.5 SSW 19 22 10 12 1014.9 1014.3 -
26/07:30pm 30.4 24.2 -4.6 10 15.6 S 19 22 10 12 1014.4 1013.8 -
26/07:00pm 31.8 25.0 -4.9 9 16.4 SSW 22 28 12 15 1013.9 1013.3 -
26/06:30pm 32.6 26.3 -4.3 9 16.8 SW 20 35 11 19 1013.4 1012.8 -
26/06:00pm 33.1 26.3 -5.5 8 17.3 SSW 22 35 12 19 1013.2 1012.6 -
26/05:30pm 33.4 27.0 -5.3 8 17.4 SSW 20 32 11 17 1013.2 1012.6 -
26/05:00pm 34.7 29.3 -4.4 8 18.0 WSW 15 28 8 15 1013.3 1012.7 -
26/04:30pm 34.2 28.6 -6.5 7 18.1 SSW 15 26 8 14 1013.5 1012.9 -
26/04:00pm 33.7 28.4 -6.8 7 17.8 W 13 22 7 12 1013.7 1013.1 -
26/03:30pm 33.7 27.3 -5.1 8 17.6 SW 20 30 11 16 1014.2 1013.6 -
26/03:00pm 32.7 27.9 -5.8 8 17.1 SW 11 20 6 11 1014.6 1014.0 -
26/02:30pm 32.6 28.2 -5.9 8 17.1 WSW 9 19 5 10 1015.1 1014.5 -
26/02:00pm 31.6 27.1 -6.6 8 16.6 W 9 22 5 12 1015.6 1015.0 -
26/01:30pm 30.8 26.7 -3.0 11 15.5 S 9 17 5 9 1016.1 1015.5 -
26/01:00pm 30.3 26.1 -1.2 13 14.8 SSW 11 24 6 13 1016.4 1015.8 -
26/12:30pm 29.9 24.7 -2.6 12 14.9 S 15 22 8 12 1016.7 1016.1 0.0
26/12:00pm 29.1 23.7 -1.1 14 14.1 S 17 24 9 13 1017.1 1016.5 0.0
26/11:30am 28.2 23.1 0.9 17 13.2 S 17 24 9 13 1017.4 1016.7 0.0
26/11:00am 26.3 22.3 4.7 25 11.0 S 15 24 8 13 1017.6 1016.9 0.0
26/10:30am 24.7 20.8 3.4 25 10.5 S 13 20 7 11 1017.8 1017.1 0.0
26/10:00am 23.1 19.4 2.6 26 9.8 S 11 17 6 9 1017.8 1017.1 0.0
26/09:30am 21.9 17.5 2.6 28 9.2 S 15 17 8 9 1017.7 1017.0 0.0
26/09:00am 20.4 15.6 2.7 31 8.3 S 17 20 9 11 1017.8 1017.1 0.2
26/08:30am 19.4 14.6 2.7 33 7.8 S 17 20 9 11 1017.6 1016.9 0.2
26/08:00am 18.5 13.6 1.9 33 7.6 S 17 20 9 11 1017.3 1016.6 0.2
26/07:30am 17.0 12.8 1.8 36 6.8 S 13 19 7 10 1016.8 1016.2 0.2
26/07:00am 15.4 11.5 1.2 38 6.2 SSW 11 15 6 8 1016.4 1015.8 0.2
26/06:30am 14.1 9.7 0.4 39 5.8 S 13 17 7 9 1016.3 1015.7 0.2
26/06:00am 12.5 8.7 -0.4 41 5.3 S 9 11 5 6 1016.2 1015.6 0.2
26/05:30am 12.0 8.3 -0.2 43 5.0 SSW 9 11 5 6 1016.0 1015.4 0.2
26/05:00am 10.7 6.7 0.2 48 4.3 SSW 11 13 6 7 1015.9 1015.3 0.2
26/04:30am 10.3 8.1 -1.4 44 4.6 CALM 0 0 0 0 1015.8 1015.2 0.2
26/04:00am 11.0 8.9 -1.1 43 4.8 CALM 0 0 0 0 1015.8 1015.2 0.2
26/03:30am 12.6 10.6 -0.3 41 5.3 CALM 0 0 0 0 1016.1 1015.5 0.2
26/03:00am 13.1 11.0 -0.5 39 5.6 CALM 0 0 0 0 1015.8 1015.2 0.2
26/02:30am 14.4 12.4 -0.1 37 6.1 CALM 0 0 0 0 1016.0 1015.4 0.2
26/02:00am 14.6 11.8 -0.7 35 6.4 SSW 4 6 2 3 1016.1 1015.5 0.2
26/01:30am 14.7 10.8 -1.4 33 6.6 SSW 9 13 5 7 1016.3 1015.7 0.2
26/01:00am 15.5 11.7 -1.1 32 6.9 SSW 9 11 5 6 1016.6 1016.0 0.2
26/12:30am 16.5 12.7 -1.1 30 7.4 SSW 9 11 5 6 1017.0 1016.4 0.2
26/12:00am 17.8 14.0 -0.9 28 8.0 SSE 9 9 5 5 1017.3 1016.6 0.2
 
Date/Time
EDT
Temp
°C
App
Temp
°C
Dew
Point
Rel
Hum
%
Delta-T
°C
Wind Press
QNH
hPa
Press
MSL
hPa
Rain
since 9 am
mm
Dir
 
Spd
km/h
Gust
km/h
Spd
kts
Gust
kts
25/11:30pm 18.7 14.1 -1.2 26 8.5 SSW 13 17 7 9 1017.5 1016.8 0.2
25/11:00pm 20.0 15.4 -1.2 24 9.2 SSW 13 17 7 9 1017.8 1017.1 0.2
25/10:30pm 21.1 15.1 -1.4 22 9.8 SSW 20 24 11 13 1017.6 1016.9 0.2
25/10:00pm 21.5 15.1 -1.7 21 10.1 S 22 28 12 15 1017.1 1016.5 0.2
25/09:30pm 21.7 15.2 -2.2 20 10.3 S 22 28 12 15 1016.9 1016.3 0.2
25/09:00pm 21.8 15.2 -3.5 18 10.6 S 22 24 12 13 1016.6 1016.0 0.2
25/08:30pm 23.1 16.6 -2.5 18 11.1 S 22 30 12 16 1016.4 1015.8 0.2
25/08:00pm 23.0 20.0 4.0 29 9.3 S 9 11 5 6 1016.2 1015.6 0.2
25/07:30pm 24.7 21.5 5.0 28 10.0 S 11 13 6 7 1016.0 1015.4 0.2
25/07:00pm 25.4 21.1 5.1 27 10.3 S 17 20 9 11 1015.8 1015.2 0.2
25/06:30pm 25.5 20.0 4.0 25 10.8 S 22 30 12 16 1015.7 1015.1 0.2
25/06:00pm 25.8 20.4 6.4 29 10.1 S 24 30 13 16 1015.4 1014.8 0.2
25/05:30pm 26.0 20.1 7.6 31 9.8 S 28 35 15 19 1015.4 1014.8 0.2
25/05:00pm 26.3 21.0 10.0 36 9.1 S 28 35 15 19 1015.5 1014.9 0.2
25/04:30pm 26.9 22.7 12.5 40 8.4 S 26 37 14 20 1015.7 1015.1 0.2
25/04:00pm 26.9 22.4 12.5 40 8.4 S 28 35 15 19 1015.7 1015.1 0.2
25/03:30pm 27.5 23.5 13.1 41 8.5 S 26 33 14 18 1016.0 1015.4 0.2
25/03:00pm 27.9 23.7 13.4 40 8.6 S 28 39 15 21 1016.0 1015.4 0.2
25/02:30pm 28.6 25.6 14.8 43 8.4 S 24 33 13 18 1016.2 1015.6 0.2
25/02:00pm 28.8 26.0 15.3 43 8.3 S 24 33 13 18 1016.2 1015.6 0.2
25/01:30pm 28.1 25.4 15.7 46 7.7 S 24 37 13 20 1016.1 1015.5 0.2
25/01:00pm 27.2 24.6 16.8 53 6.5 S 26 33 14 18 1016.5 1015.9 0.2
25/12:30pm 26.4 24.0 16.3 53 6.3 S 24 30 13 16 1016.9 1016.3 0.2
25/12:00pm 25.4 22.0 15.7 55 5.9 S 28 35 15 19 1016.9 1016.3 0.0
25/11:30am 24.5 21.8 17.5 65 4.4 S 28 33 15 18 1017.1 1016.5 0.0
25/11:00am 23.6 20.0 17.3 67 3.9 S 32 37 17 20 1017.1 1016.5 0.0
25/10:30am 23.7 20.9 18.1 71 3.5 S 30 37 16 20 1017.0 1016.4 0.0
25/10:00am 23.5 21.3 18.6 74 3.1 S 28 33 15 18 1017.0 1016.4 0.0
25/09:30am 22.7 20.6 18.0 75 2.9 S 26 35 14 19 1016.8 1016.2 0.0
25/09:00am 22.5 23.4 20.0 86 1.6 S 15 19 8 10 1016.2 1015.6 1.2
25/08:30am 23.3 24.9 20.8 86 1.6 SSW 13 19 7 10 1016.0 1015.4 1.2
25/08:00am 23.0 25.6 20.5 86 1.6 SW 7 11 4 6 1015.4 1014.8 1.2
25/07:30am 22.3 24.9 20.0 87 1.5 W 6 7 3 4 1014.6 1014.0 1.2
25/07:00am 21.8 23.9 20.1 90 1.1 SSW 9 11 5 6 1014.0 1013.4 1.2
25/06:30am 21.6 24.7 19.5 88 1.3 E 2 7 1 4 1013.5 1012.9 1.2
25/06:14am 21.7 24.1 19.6 88 1.3 NNE 6 9 3 5 1013.2 1012.6 1.0
25/06:00am 21.7 23.8 19.3 86 1.5 E 7 15 4 8 1013.2 1012.6 1.0
25/05:52am 21.8 23.2 19.5 87 1.5 ENE 11 15 6 8 1012.7 1012.1 1.0
25/05:30am 22.2 23.3 19.6 85 1.7 NNE 13 15 7 8 1012.9 1012.3 0.6
25/05:00am 22.6 24.1 19.0 80 2.3 NE 9 11 5 6 1012.6 1012.0 0.2
25/04:30am 23.4 26.3 18.1 72 3.3 CALM 0 0 0 0 1012.6 1012.0 0.0
25/04:00am 23.7 25.5 18.4 72 3.4 WNW 6 7 3 4 1012.8 1012.2 0.0
25/03:30am 23.7 25.5 18.4 72 3.4 WNW 6 11 3 6 1012.7 1012.1 0.0
25/03:00am 23.8 26.5 17.8 69 3.8 CALM 0 0 0 0 1012.3 1011.7 0.0
25/02:30am 24.1 26.1 17.8 68 4.0 WSW 4 9 2 5 1012.6 1012.0 0.0
25/02:00am 24.1 25.1 17.8 68 4.0 S 9 11 5 6 1012.3 1011.7 0.0
25/01:30am 24.6 24.4 17.6 65 4.4 SSW 15 22 8 12 1012.6 1012.0 0.0
25/01:00am 25.1 24.2 17.8 64 4.6 SSW 19 26 10 14 1012.6 1012.0 0.0
25/12:30am 25.4 24.2 17.6 62 4.9 SSW 20 30 11 16 1012.6 1012.0 0.0
25/12:00am 25.3 24.4 18.2 64 4.5 SSW 20 28 11 15 1012.7 1012.1 0.0
 
Date/Time
EDT
Temp
°C
App
Temp
°C
Dew
Point
Rel
Hum
%
Delta-T
°C
Wind Press
QNH
hPa
Press
MSL
hPa
Rain
since 9 am
mm
Dir
 
Spd
km/h
Gust
km/h
Spd
kts
Gust
kts
24/11:30pm 25.4 25.1 18.3 65 4.5 SW 17 20 9 11 1012.7 1012.1 0.0
24/11:00pm 25.4 25.7 18.8 67 4.2 W 15 20 8 11 1012.9 1012.3 0.0
24/10:30pm 26.5 25.0 17.8 58 5.5 W 22 30 12 16 1012.8 1012.2 0.0
24/10:00pm 26.0 26.0 18.2 62 5.0 W 15 19 8 10 1012.9 1012.3 0.0
24/09:30pm 25.7 26.4 18.9 66 4.4 WNW 13 17 7 9 1013.2 1012.6 0.0
24/09:00pm 26.7 25.7 17.5 57 5.8 WNW 19 24 10 13 1013.1 1012.5 0.0
24/08:30pm 26.4 25.3 17.7 58 5.5 W 20 28 11 15 1012.8 1012.2 0.0
24/08:00pm 26.6 24.6 17.4 57 5.8 SW 24 33 13 18 1011.8 1011.2 0.0
24/07:30pm 29.7 28.8 16.8 45 8.1 W 17 39 9 21 1011.5 1010.9 0.0
24/07:00pm 30.5 30.0 15.8 41 9.2 W 13 17 7 9 1010.8 1010.1 0.0
24/06:30pm 30.5 31.8 16.1 41 9.0 E 4 11 2 6 1010.0 1009.3 0.0
24/06:00pm 31.6 30.8 15.1 36 10.2 NE 13 19 7 10 1009.3 1008.7 0.0
24/05:52pm 30.5 25.8 16.9 44 8.6 NE 37 56 20 30 1008.9 1008.3 0.0
24/05:30pm 29.9 26.6 17.0 45 8.2 SW 30 43 16 23 1008.1 1007.5 0.0
24/05:29pm 29.7 26.5 17.2 47 7.9 SW 30 37 16 20 1008.1 1007.5 0.0
24/05:23pm 29.0 26.3 17.5 49 7.3 SW 28 37 15 20 1008.1 1007.5 0.0
24/05:11pm 28.1 24.2 17.9 54 6.5 WSW 35 44 19 24 1008.4 1007.8 0.0
24/05:10pm 27.8 24.0 18.2 56 6.1 WSW 35 44 19 24 1008.5 1007.9 0.0
24/05:00pm 28.3 22.9 17.8 53 6.7 W 43 56 23 30 1008.6 1008.0 0.0
24/04:35pm 29.9 22.8 17.0 45 8.2 W 50 69 27 37 1008.9 1008.3 0.0
24/04:30pm 30.2 22.2 16.6 44 8.6 W 54 69 29 37 1008.7 1008.1 0.0
24/04:04pm 33.9 30.3 16.3 35 11.2 W 30 61 16 33 1007.6 1007.0 0.0
24/04:00pm 37.6 33.1 11.5 21 15.7 W 26 41 14 22 1007.4 1006.8 0.0
24/03:42pm 35.8 29.6 11.4 23 14.5 WNW 35 82 19 44 1006.9 1006.3 0.0
24/03:40pm 39.2 33.7 10.5 18 17.1 W 30 52 16 28 1006.8 1006.2 0.0
24/03:30pm 40.1 34.3 9.5 16 18.0 W 30 41 16 22 1006.9 1006.3 0.0
24/03:00pm 40.4 35.7 10.6 17 17.9 WNW 26 37 14 20 1007.6 1007.0 0.0
24/02:30pm 40.4 35.1 9.7 16 18.2 NW 28 46 15 25 1008.1 1007.5 0.0
24/02:00pm 41.1 35.3 9.3 15 18.8 NW 30 48 16 26 1008.7 1008.1 0.0
24/01:58pm 40.7 35.1 10.0 16 18.3 NW 30 48 16 26 1008.7 1008.1 0.0
24/01:30pm 40.3 34.8 10.5 17 17.8 NW 30 43 16 23 1009.1 1008.5 0.0
24/01:00pm 40.7 35.3 10.9 17 18.0 NW 30 56 16 30 1009.6 1008.9 0.0
24/12:32pm 40.2 35.3 11.3 18 17.5 NNW 28 46 15 25 1010.1 1009.4 0.0
24/12:30pm 39.4 33.9 10.7 18 17.2 NW 30 46 16 25 1010.1 1009.4 0.0
24/12:18pm 40.9 36.2 11.9 18 17.7 NNW 28 46 15 25 1010.4 1009.7 0.0
24/12:00pm 39.9 34.9 11.1 18 17.4 NNW 28 39 15 21 1010.7 1010.0 0.0
24/11:30am 38.8 35.2 13.2 21 15.8 NNW 24 37 13 20 1011.0 1010.3 0.0
24/11:00am 38.2 34.7 13.4 23 15.3 N 24 32 13 17 1011.4 1010.8 0.0
24/10:30am 37.2 34.3 13.9 25 14.5 N 22 32 12 17 1011.6 1011.0 0.0
24/10:00am 35.2 31.5 13.9 27 13.1 N 26 33 14 18 1011.9 1011.3 0.0

Other Formats:

Comma delimited format used in spreadsheet applications
http://www.bom.gov.au/fwo/IDN60801/IDN60801.95715.axf

JavaScript Object Notation format (JSON) in row-major order
http://www.bom.gov.au/fwo/IDN60801/IDN60801.95715.json